Time;durP1;ratioP1;P1;durP2;ratioP2;P2;SDS_P1;SDS_P2;PMS_P1;PMS_P2;Temp;Humidity;BMP_temperature;BMP_pressure;BME280_temperature;BME280_humidity;BME280_pressure;Samples;Min_cycle;Max_cycle;Signal;HPM_P1;HPM_P2
2022/07/16 00:03:47;;;;;;;7.60;2.38;;;;;;;;;;4931017;28;20114;-65
2022/07/16 00:06:12;;;;;;;12.95;2.90;;;;;;;;;;4930551;28;20751;-66
2022/07/16 00:08:38;;;;;;;12.20;3.00;;;;;;;;;;4932578;28;20050;-65
2022/07/16 00:11:03;;;;;;;12.18;2.83;;;;;;;;;;4932049;28;20030;-65
2022/07/16 00:13:29;;;;;;;12.02;2.90;;;;;;;;;;4931858;28;20030;-65
2022/07/16 00:15:59;;;;;;;12.02;2.88;;;;;;;;;;4930865;28;20673;-66
2022/07/16 00:21:11;;;;;;;10.98;2.83;;;;;;;;;;4943877;28;20037;-66
2022/07/16 00:23:38;;;;;;;10.98;3.00;;;;;;;;;;4946157;28;20031;-66
2022/07/16 00:26:04;;;;;;;12.85;3.10;;;;;;;;;;4931092;28;20153;-66
2022/07/16 00:28:29;;;;;;;18.77;3.08;;;;;;;;;;4931004;28;20105;-66
2022/07/16 00:30:54;;;;;;;18.17;3.10;;;;;;;;;;4931891;28;20034;-65
2022/07/16 00:33:19;;;;;;;16.70;2.90;;;;;;;;;;4940485;28;20022;-65
2022/07/16 00:35:45;;;;;;;10.18;2.70;;;;;;;;;;4931294;28;20039;-66
2022/07/16 00:38:12;;;;;;;9.02;2.40;;;;;;;;;;4946014;28;20035;-65
2022/07/16 00:40:37;;;;;;;5.90;1.98;;;;;;;;;;4959926;28;20074;-68
2022/07/16 00:43:03;;;;;;;9.68;2.10;;;;;;;;;;4931934;28;20031;-66
2022/07/16 00:45:31;;;;;;;5.85;2.13;;;;;;;;;;4930905;28;20771;-67
2022/07/16 00:47:59;;;;;;;13.80;2.58;;;;;;;;;;4946077;28;20033;-66
2022/07/16 00:50:24;;;;;;;8.68;2.53;;;;;;;;;;4930343;28;20034;-67
2022/07/16 00:52:50;;;;;;;10.10;2.53;;;;;;;;;;4932450;28;20156;-67
2022/07/16 00:55:15;;;;;;;10.65;2.20;;;;;;;;;;4935163;28;20026;-65
2022/07/16 00:57:40;;;;;;;12.15;2.25;;;;;;;;;;4945708;28;22340;-66
2022/07/16 01:00:07;;;;;;;8.15;2.28;;;;;;;;;;4931118;28;20090;-66
2022/07/16 01:02:33;;;;;;;6.57;2.10;;;;;;;;;;4931796;28;20985;-66
2022/07/16 01:04:58;;;;;;;8.23;2.33;;;;;;;;;;4945201;28;20039;-66
2022/07/16 01:07:27;;;;;;;6.88;2.20;;;;;;;;;;4931672;28;20046;-66
2022/07/16 01:09:55;;;;;;;7.55;2.00;;;;;;;;;;4938790;28;20034;-67
2022/07/16 01:12:21;;;;;;;7.43;2.20;;;;;;;;;;4932061;28;20127;-66
2022/07/16 01:14:47;;;;;;;8.57;2.20;;;;;;;;;;4945110;28;20039;-66
2022/07/16 01:17:12;;;;;;;7.68;2.22;;;;;;;;;;4930244;28;20047;-66
2022/07/16 01:19:39;;;;;;;7.57;2.50;;;;;;;;;;4930611;28;20046;-66
2022/07/16 01:22:04;;;;;;;8.82;2.63;;;;;;;;;;4934669;28;20046;-67
2022/07/16 01:24:29;;;;;;;8.27;2.80;;;;;;;;;;4930821;28;20039;-66
2022/07/16 01:26:55;;;;;;;14.20;2.83;;;;;;;;;;4944375;28;20601;-66
2022/07/16 01:29:20;;;;;;;11.20;2.58;;;;;;;;;;4931136;28;20031;-67
2022/07/16 01:31:46;;;;;;;7.22;2.30;;;;;;;;;;4933502;28;20038;-67
2022/07/16 01:34:27;;;;;;;8.40;2.80;;;;;;;;;;4930941;28;20039;-66
2022/07/16 01:37:00;;;;;;;8.80;2.73;;;;;;;;;;4930537;28;20090;-66
2022/07/16 01:39:26;;;;;;;9.13;2.80;;;;;;;;;;4931089;28;20138;-66
2022/07/16 01:41:52;;;;;;;11.35;2.80;;;;;;;;;;4930434;28;20151;-67
2022/07/16 01:44:18;;;;;;;9.25;2.85;;;;;;;;;;4932157;28;20139;-67
2022/07/16 01:46:43;;;;;;;11.70;2.42;;;;;;;;;;4930448;28;20042;-68
2022/07/16 01:49:08;;;;;;;7.97;2.95;;;;;;;;;;4929149;28;20157;-68
2022/07/16 01:51:34;;;;;;;8.50;2.85;;;;;;;;;;4944363;28;20680;-68
2022/07/16 01:53:59;;;;;;;9.05;2.70;;;;;;;;;;4937622;28;20811;-68
2022/07/16 01:56:24;;;;;;;9.90;2.67;;;;;;;;;;4930438;28;20035;-68
2022/07/16 01:58:50;;;;;;;8.35;2.72;;;;;;;;;;4929841;28;20617;-67
2022/07/16 02:01:15;;;;;;;9.65;2.55;;;;;;;;;;4930841;28;20629;-67
2022/07/16 02:03:40;;;;;;;7.50;2.70;;;;;;;;;;4930022;28;20633;-68
2022/07/16 02:06:06;;;;;;;9.57;2.97;;;;;;;;;;4930314;28;20594;-67
2022/07/16 02:08:31;;;;;;;11.40;2.85;;;;;;;;;;4930232;28;20119;-67
2022/07/16 02:10:56;;;;;;;9.90;2.80;;;;;;;;;;4928517;28;20051;-67
2022/07/16 02:13:21;;;;;;;13.18;2.90;;;;;;;;;;4930689;28;20788;-67
2022/07/16 02:15:47;;;;;;;10.25;2.80;;;;;;;;;;4927315;28;20061;-67
2022/07/16 02:18:12;;;;;;;12.38;2.33;;;;;;;;;;4930482;28;20154;-67
2022/07/16 02:20:37;;;;;;;5.32;1.55;;;;;;;;;;4929403;28;20081;-66
2022/07/16 02:23:03;;;;;;;8.70;1.92;;;;;;;;;;4929210;28;20449;-66
2022/07/16 02:25:28;;;;;;;5.57;1.40;;;;;;;;;;4928985;28;20041;-66
2022/07/16 02:28:05;;;;;;;4.60;1.13;;;;;;;;;;4930770;28;20091;-66
2022/07/16 02:30:31;;;;;;;5.38;1.38;;;;;;;;;;4929938;28;20751;-66
2022/07/16 02:32:56;;;;;;;8.57;1.20;;;;;;;;;;4931405;28;20152;-66
2022/07/16 02:35:24;;;;;;;7.03;1.50;;;;;;;;;;4943450;28;20923;-66
2022/07/16 02:37:52;;;;;;;11.20;1.58;;;;;;;;;;4930468;28;20061;-66
2022/07/16 02:40:18;;;;;;;7.65;1.45;;;;;;;;;;4934191;28;20754;-66
2022/07/16 02:42:43;;;;;;;3.92;1.20;;;;;;;;;;4930590;28;20145;-65
2022/07/16 02:45:08;;;;;;;6.88;1.33;;;;;;;;;;4928710;28;20027;-66
2022/07/16 02:47:36;;;;;;;9.68;1.85;;;;;;;;;;4930895;28;20050;-65
2022/07/16 02:50:04;;;;;;;6.95;1.80;;;;;;;;;;4927623;28;20881;-66
2022/07/16 02:52:30;;;;;;;8.50;1.65;;;;;;;;;;4930275;28;20045;-66
2022/07/16 02:54:55;;;;;;;7.88;1.80;;;;;;;;;;4943613;28;20042;-66
2022/07/16 02:57:20;;;;;;;7.80;1.73;;;;;;;;;;4930807;28;20026;-65
2022/07/16 02:59:45;;;;;;;5.72;1.58;;;;;;;;;;4928779;28;20090;-66
2022/07/16 03:02:11;;;;;;;9.68;1.65;;;;;;;;;;4944421;28;20122;-66
2022/07/16 03:04:36;;;;;;;9.82;1.58;;;;;;;;;;4932423;28;20056;-67
2022/07/16 03:07:03;;;;;;;8.63;1.85;;;;;;;;;;4936890;28;20046;-65
2022/07/16 03:09:28;;;;;;;8.65;1.48;;;;;;;;;;4935404;28;20147;-66
2022/07/16 03:11:53;;;;;;;8.27;1.80;;;;;;;;;;4935611;28;20112;-67
2022/07/16 03:14:18;;;;;;;7.10;1.70;;;;;;;;;;4948613;28;20122;-66
2022/07/16 03:16:46;;;;;;;9.88;1.75;;;;;;;;;;4935298;28;20046;-66
2022/07/16 03:19:12;;;;;;;3.80;1.38;;;;;;;;;;4935327;28;20039;-67
2022/07/16 03:21:37;;;;;;;8.73;1.80;;;;;;;;;;4935709;28;20038;-66
2022/07/16 03:24:03;;;;;;;6.72;1.70;;;;;;;;;;4934624;28;20399;-66
2022/07/16 03:26:28;;;;;;;6.38;1.63;;;;;;;;;;4934962;28;20047;-67
2022/07/16 03:28:53;;;;;;;9.02;1.77;;;;;;;;;;4934107;28;20118;-67
2022/07/16 03:31:18;;;;;;;8.30;2.00;;;;;;;;;;4936256;28;20042;-67
2022/07/16 03:33:46;;;;;;;7.10;1.60;;;;;;;;;;4934466;28;20038;-67
2022/07/16 03:36:12;;;;;;;9.65;2.22;;;;;;;;;;4936900;28;20042;-67
2022/07/16 03:41:23;;;;;;;8.98;1.60;;;;;;;;;;4934425;28;20689;-66
2022/07/16 03:43:49;;;;;;;5.35;1.60;;;;;;;;;;4935581;28;20080;-67
2022/07/16 03:46:14;;;;;;;6.10;1.60;;;;;;;;;;4933358;28;20142;-66
2022/07/16 03:48:43;;;;;;;5.60;1.92;;;;;;;;;;4934172;28;20574;-66
2022/07/16 03:51:13;;;;;;;11.60;1.98;;;;;;;;;;4933832;28;20037;-66
2022/07/16 03:53:38;;;;;;;10.23;2.08;;;;;;;;;;4934570;28;20054;-65
2022/07/16 03:56:04;;;;;;;11.45;1.88;;;;;;;;;;4934592;28;20113;-67
2022/07/16 03:58:30;;;;;;;14.80;2.55;;;;;;;;;;4932776;28;20054;-66
2022/07/16 04:00:55;;;;;;;6.25;2.03;;;;;;;;;;4933359;28;20035;-69
2022/07/16 04:03:21;;;;;;;10.70;2.53;;;;;;;;;;4931746;28;20073;-67
2022/07/16 04:05:50;;;;;;;11.07;2.03;;;;;;;;;;4931778;28;20123;-68
2022/07/16 04:08:15;;;;;;;11.55;2.10;;;;;;;;;;4932499;28;20141;-65
2022/07/16 04:10:41;;;;;;;8.48;2.13;;;;;;;;;;4931433;28;20858;-66
2022/07/16 04:13:09;;;;;;;9.13;2.20;;;;;;;;;;4931448;28;20030;-67
2022/07/16 04:15:37;;;;;;;8.85;1.67;;;;;;;;;;4932673;28;20042;-66
2022/07/16 04:18:02;;;;;;;7.85;1.67;;;;;;;;;;4938170;28;20078;-68
2022/07/16 04:20:28;;;;;;;11.30;1.70;;;;;;;;;;4934528;28;21884;-68
2022/07/16 04:22:53;;;;;;;8.95;1.83;;;;;;;;;;4933215;28;20134;-66
2022/07/16 04:25:19;;;;;;;7.50;1.92;;;;;;;;;;4930831;28;20109;-67
2022/07/16 04:27:44;;;;;;;7.57;1.95;;;;;;;;;;4930659;28;20086;-66
2022/07/16 04:30:10;;;;;;;11.10;2.45;;;;;;;;;;4931440;28;20053;-66
2022/07/16 04:32:36;;;;;;;10.90;2.13;;;;;;;;;;4931791;28;20045;-67
2022/07/16 04:35:02;;;;;;;7.40;1.83;;;;;;;;;;4930670;28;20529;-69
2022/07/16 04:37:27;;;;;;;9.60;1.90;;;;;;;;;;4936576;28;20125;-71
2022/07/16 04:39:56;;;;;;;11.38;1.90;;;;;;;;;;4939164;28;20030;-70
2022/07/16 04:42:23;;;;;;;12.77;1.90;;;;;;;;;;4933553;28;20046;-69
2022/07/16 04:44:48;;;;;;;14.13;1.75;;;;;;;;;;4934437;28;20061;-69
2022/07/16 04:47:13;;;;;;;10.32;1.95;;;;;;;;;;4937559;28;20103;-70
2022/07/16 04:49:41;;;;;;;14.77;2.00;;;;;;;;;;4932472;28;20859;-67
2022/07/16 04:52:07;;;;;;;10.82;1.63;;;;;;;;;;4929909;28;20038;-67
2022/07/16 04:54:32;;;;;;;9.05;1.50;;;;;;;;;;4931093;28;20086;-67
2022/07/16 04:56:57;;;;;;;11.20;1.50;;;;;;;;;;4936928;28;20046;-68
2022/07/16 04:59:25;;;;;;;6.93;1.40;;;;;;;;;;4930356;28;20772;-66
2022/07/16 05:01:53;;;;;;;6.68;1.20;;;;;;;;;;4932001;28;20039;-67
2022/07/16 05:04:18;;;;;;;7.15;1.30;;;;;;;;;;4930678;28;20487;-66
2022/07/16 05:06:46;;;;;;;10.98;1.80;;;;;;;;;;4923974;28;20096;-66
2022/07/16 05:09:12;;;;;;;6.78;1.10;;;;;;;;;;4925182;28;20446;-66
2022/07/16 05:11:37;;;;;;;5.63;1.48;;;;;;;;;;4934849;28;20038;-66
2022/07/16 05:14:02;;;;;;;11.60;1.60;;;;;;;;;;4942711;28;20039;-66
2022/07/16 05:16:27;;;;;;;10.88;1.40;;;;;;;;;;4931205;28;20565;-66
2022/07/16 05:18:53;;;;;;;5.60;1.30;;;;;;;;;;4931077;28;20065;-66
2022/07/16 05:21:18;;;;;;;8.88;1.48;;;;;;;;;;4929917;28;20122;-67
2022/07/16 05:23:44;;;;;;;6.10;1.20;;;;;;;;;;4930854;28;20862;-67
2022/07/16 05:26:09;;;;;;;7.20;1.25;;;;;;;;;;4935072;28;20097;-68
2022/07/16 05:28:37;;;;;;;6.72;1.00;;;;;;;;;;4931116;28;20126;-67
2022/07/16 05:31:02;;;;;;;8.70;1.30;;;;;;;;;;4931702;28;22313;-68
2022/07/16 05:33:28;;;;;;;8.13;1.40;;;;;;;;;;4930886;28;20059;-67
2022/07/16 05:35:55;;;;;;;6.97;1.25;;;;;;;;;;4938700;28;20039;-67
2022/07/16 05:38:23;;;;;;;8.68;1.35;;;;;;;;;;4945166;28;20618;-67
2022/07/16 05:40:49;;;;;;;6.43;1.30;;;;;;;;;;4931331;28;20046;-67
2022/07/16 05:43:14;;;;;;;6.80;1.25;;;;;;;;;;4930620;28;20031;-66
2022/07/16 05:45:39;;;;;;;8.55;1.30;;;;;;;;;;4931042;28;20046;-66
2022/07/16 05:48:05;;;;;;;6.30;1.10;;;;;;;;;;4930152;28;20038;-67
2022/07/16 05:50:30;;;;;;;5.90;1.25;;;;;;;;;;4929918;28;20878;-67
2022/07/16 05:52:56;;;;;;;8.35;1.40;;;;;;;;;;4929801;28;20030;-67
2022/07/16 05:55:21;;;;;;;6.07;1.13;;;;;;;;;;4935059;28;20042;-67
2022/07/16 05:57:49;;;;;;;7.35;1.00;;;;;;;;;;4927620;28;20595;-67
2022/07/16 06:00:16;;;;;;;5.07;1.00;;;;;;;;;;4933958;28;20045;-71
2022/07/16 06:02:42;;;;;;;7.13;1.33;;;;;;;;;;4937085;28;20121;-75
2022/07/16 06:05:08;;;;;;;8.15;1.30;;;;;;;;;;4939415;28;20074;-70
2022/07/16 06:07:33;;;;;;;4.55;1.30;;;;;;;;;;4933242;28;20046;-72
2022/07/16 06:10:01;;;;;;;6.43;1.10;;;;;;;;;;4934821;28;20042;-73
2022/07/16 06:12:27;;;;;;;8.02;1.05;;;;;;;;;;4933989;28;20039;-73
2022/07/16 06:14:52;;;;;;;6.65;1.00;;;;;;;;;;4937152;28;20035;-73
2022/07/16 06:17:18;;;;;;;3.80;0.98;;;;;;;;;;4919516;28;20051;-73
2022/07/16 06:19:43;;;;;;;7.38;1.25;;;;;;;;;;4930374;28;20053;-73
2022/07/16 06:22:09;;;;;;;7.07;1.00;;;;;;;;;;4934373;28;20560;-73
2022/07/16 06:24:35;;;;;;;8.85;1.42;;;;;;;;;;4935099;28;20038;-74
2022/07/16 06:27:00;;;;;;;12.13;1.30;;;;;;;;;;4926236;28;20818;-72
2022/07/16 06:29:25;;;;;;;9.13;1.48;;;;;;;;;;4943941;28;20767;-73
2022/07/16 06:31:51;;;;;;;8.70;1.20;;;;;;;;;;4929054;28;20035;-70
2022/07/16 06:34:16;;;;;;;10.63;1.27;;;;;;;;;;4928408;28;20332;-73
2022/07/16 06:36:41;;;;;;;7.55;0.95;;;;;;;;;;4929207;28;20109;-72
2022/07/16 06:39:08;;;;;;;9.93;1.27;;;;;;;;;;4931558;28;20062;-70
2022/07/16 06:41:34;;;;;;;3.95;1.17;;;;;;;;;;4951074;28;20326;-69
2022/07/16 06:44:02;;;;;;;10.18;1.40;;;;;;;;;;4953500;28;20042;-70
2022/07/16 06:46:28;;;;;;;6.82;1.00;;;;;;;;;;4951495;28;20050;-72
2022/07/16 06:48:53;;;;;;;8.43;0.95;;;;;;;;;;4950190;28;20035;-69
2022/07/16 06:51:19;;;;;;;6.70;1.27;;;;;;;;;;4949654;28;20368;-70
2022/07/16 06:53:44;;;;;;;6.00;1.17;;;;;;;;;;4947633;28;20177;-70
2022/07/16 06:56:10;;;;;;;6.32;1.30;;;;;;;;;;4962202;28;20136;-69
2022/07/16 06:58:37;;;;;;;8.27;1.10;;;;;;;;;;4952950;28;20042;-70
2022/07/16 07:01:03;;;;;;;5.47;0.95;;;;;;;;;;4950886;28;20038;-75
2022/07/16 07:03:28;;;;;;;7.95;1.45;;;;;;;;;;4935934;28;20124;-73
2022/07/16 07:05:54;;;;;;;5.82;1.20;;;;;;;;;;4936497;28;20074;-75
2022/07/16 07:08:19;;;;;;;6.60;1.02;;;;;;;;;;4934648;28;20087;-69
2022/07/16 07:10:44;;;;;;;6.22;1.10;;;;;;;;;;4954082;28;20133;-68
2022/07/16 07:13:09;;;;;;;5.18;1.10;;;;;;;;;;4955462;28;20116;-68
2022/07/16 07:15:37;;;;;;;6.03;1.20;;;;;;;;;;4949269;28;20054;-70
2022/07/16 07:18:05;;;;;;;6.88;1.33;;;;;;;;;;4957966;28;20141;-69
2022/07/16 07:20:30;;;;;;;187.63;22.35;;;;;;;;;;4951697;28;20393;-70
2022/07/16 07:22:56;;;;;;;48.55;5.97;;;;;;;;;;4947876;28;20031;-67
2022/07/16 07:25:21;;;;;;;10.10;1.42;;;;;;;;;;4940976;28;20138;-68
2022/07/16 07:27:46;;;;;;;7.95;1.33;;;;;;;;;;4939641;28;20123;-70
2022/07/16 07:30:12;;;;;;;10.50;1.40;;;;;;;;;;4933934;28;20045;-70
2022/07/16 07:32:40;;;;;;;10.98;1.45;;;;;;;;;;4935044;28;20098;-71
2022/07/16 07:35:06;;;;;;;7.30;1.48;;;;;;;;;;4937441;28;20042;-70
2022/07/16 07:37:31;;;;;;;9.32;1.20;;;;;;;;;;4936684;28;20031;-69
2022/07/16 07:39:59;;;;;;;7.00;1.25;;;;;;;;;;4930441;28;20597;-69
2022/07/16 07:42:24;;;;;;;8.30;1.70;;;;;;;;;;4951015;28;20042;-71
2022/07/16 07:44:49;;;;;;;8.68;1.10;;;;;;;;;;4951236;28;20038;-70
2022/07/16 07:47:15;;;;;;;10.93;1.50;;;;;;;;;;4937379;28;20042;-69
2022/07/16 07:49:42;;;;;;;11.52;1.48;;;;;;;;;;4941584;28;20035;-70
2022/07/16 07:52:08;;;;;;;12.25;1.60;;;;;;;;;;4936295;28;20042;-70
2022/07/16 07:54:34;;;;;;;7.20;1.00;;;;;;;;;;4935784;28;20712;-70
2022/07/16 07:56:59;;;;;;;8.50;1.25;;;;;;;;;;4936296;28;20941;-70
2022/07/16 07:59:24;;;;;;;6.18;0.80;;;;;;;;;;4935175;28;20073;-70
2022/07/16 08:01:50;;;;;;;4.53;0.85;;;;;;;;;;4936832;28;20129;-70
2022/07/16 08:04:15;;;;;;;9.32;1.20;;;;;;;;;;4942065;28;20045;-71
2022/07/16 08:06:41;;;;;;;5.80;1.10;;;;;;;;;;4935875;28;20054;-70
2022/07/16 08:09:06;;;;;;;6.57;1.10;;;;;;;;;;4948970;28;20074;-72
2022/07/16 08:11:32;;;;;;;4.13;0.90;;;;;;;;;;4943019;28;20035;-70
2022/07/16 08:13:57;;;;;;;7.78;1.10;;;;;;;;;;4935432;28;20042;-72
2022/07/16 08:16:22;;;;;;;8.30;1.15;;;;;;;;;;4939428;28;20614;-71
2022/07/16 08:18:48;;;;;;;5.65;1.17;;;;;;;;;;4936885;28;20121;-70
2022/07/16 08:21:13;;;;;;;11.05;1.23;;;;;;;;;;4950213;28;20047;-71
2022/07/16 08:26:24;;;;;;;6.57;1.30;;;;;;;;;;4947984;28;20046;-73
2022/07/16 08:28:50;;;;;;;8.07;1.30;;;;;;;;;;4934893;28;20045;-72
2022/07/16 08:31:15;;;;;;;4.70;1.00;;;;;;;;;;4934100;28;20939;-70
2022/07/16 08:33:40;;;;;;;7.15;1.10;;;;;;;;;;4935598;28;20049;-70
2022/07/16 08:36:05;;;;;;;9.65;1.30;;;;;;;;;;4939103;28;20109;-69
2022/07/16 08:38:31;;;;;;;5.05;1.17;;;;;;;;;;4953804;28;20038;-66
2022/07/16 08:40:56;;;;;;;7.20;1.40;;;;;;;;;;4942232;28;20920;-72
2022/07/16 08:43:22;;;;;;;10.40;1.10;;;;;;;;;;4954521;28;20030;-73
2022/07/16 08:45:50;;;;;;;9.18;1.13;;;;;;;;;;4955956;28;20774;-75
2022/07/16 08:48:16;;;;;;;8.27;1.17;;;;;;;;;;4956128;28;20063;-71
2022/07/16 08:50:41;;;;;;;7.97;1.35;;;;;;;;;;4969048;28;20061;-73
2022/07/16 08:53:09;;;;;;;4.43;1.00;;;;;;;;;;4970366;28;20044;-75
2022/07/16 08:55:36;;;;;;;5.65;1.10;;;;;;;;;;4959949;28;20117;-74
2022/07/16 08:58:01;;;;;;;6.35;1.20;;;;;;;;;;4960713;28;20030;-75
2022/07/16 09:00:27;;;;;;;8.57;1.13;;;;;;;;;;4972317;28;20077;-75
2022/07/16 09:02:54;;;;;;;8.02;1.15;;;;;;;;;;4963434;28;20035;-72
2022/07/16 09:05:20;;;;;;;7.70;1.63;;;;;;;;;;4952192;28;20739;-71
2022/07/16 09:07:46;;;;;;;5.93;1.35;;;;;;;;;;4949634;28;20507;-74
2022/07/16 09:10:11;;;;;;;8.10;1.20;;;;;;;;;;4940709;28;20073;-70
2022/07/16 09:12:41;;;;;;;3.83;1.13;;;;;;;;;;4940693;28;20038;-69
2022/07/16 09:15:27;;;;;;;5.32;1.00;;;;;;;;;;4948735;28;20045;-71
2022/07/16 09:18:09;;;;;;;6.47;1.00;;;;;;;;;;4948980;28;20138;-70
2022/07/16 09:20:35;;;;;;;8.73;1.23;;;;;;;;;;4936529;28;20160;-65
2022/07/16 09:23:02;;;;;;;10.38;1.33;;;;;;;;;;4942585;28;20964;-70
2022/07/16 09:25:27;;;;;;;6.90;1.17;;;;;;;;;;4957426;28;20137;-69
2022/07/16 09:27:59;;;;;;;7.95;1.27;;;;;;;;;;4944636;28;20049;-70
2022/07/16 09:30:25;;;;;;;8.15;1.23;;;;;;;;;;4943857;28;20689;-71
2022/07/16 09:32:50;;;;;;;6.05;1.27;;;;;;;;;;4942548;28;20130;-68
2022/07/16 09:35:17;;;;;;;5.85;1.00;;;;;;;;;;4939010;28;20520;-68
2022/07/16 09:37:46;;;;;;;6.60;1.10;;;;;;;;;;4938294;28;20037;-69
2022/07/16 09:40:12;;;;;;;7.28;1.15;;;;;;;;;;4943158;28;20030;-68
2022/07/16 09:42:38;;;;;;;13.52;1.55;;;;;;;;;;4935313;28;20035;-68
2022/07/16 09:45:03;;;;;;;7.05;1.10;;;;;;;;;;4935146;28;20716;-69
2022/07/16 09:47:29;;;;;;;6.78;1.30;;;;;;;;;;4935805;28;20085;-71
2022/07/16 09:49:56;;;;;;;8.77;1.60;;;;;;;;;;4945481;28;20157;-69
2022/07/16 09:52:29;;;;;;;8.02;1.33;;;;;;;;;;4934271;28;20180;-67
2022/07/16 09:54:55;;;;;;;8.15;1.10;;;;;;;;;;4962648;28;20677;-72
2022/07/16 09:57:23;;;;;;;9.15;1.08;;;;;;;;;;4944542;28;20035;-73
2022/07/16 09:59:48;;;;;;;10.15;1.30;;;;;;;;;;4966970;28;20060;-71
2022/07/16 10:02:14;;;;;;;7.20;1.05;;;;;;;;;;4939971;28;22138;-70
2022/07/16 10:04:40;;;;;;;9.07;1.15;;;;;;;;;;4943045;28;20043;-71
2022/07/16 10:07:06;;;;;;;9.93;1.30;;;;;;;;;;4934747;28;20054;-69
2022/07/16 10:09:33;;;;;;;4.75;1.23;;;;;;;;;;4936217;28;20962;-75
2022/07/16 10:12:19;;;;;;;6.05;1.30;;;;;;;;;;4945390;28;20058;-69
2022/07/16 10:14:49;;;;;;;7.75;1.40;;;;;;;;;;4936334;28;21165;-70
2022/07/16 10:17:16;;;;;;;7.30;1.00;;;;;;;;;;4942412;28;20042;-73
2022/07/16 10:19:45;;;;;;;9.55;1.20;;;;;;;;;;4944052;28;20126;-69
2022/07/16 10:22:13;;;;;;;5.97;0.95;;;;;;;;;;4946351;28;20446;-73
2022/07/16 10:24:46;;;;;;;6.97;1.10;;;;;;;;;;4939175;28;20031;-76
2022/07/16 10:27:18;;;;;;;5.35;0.88;;;;;;;;;;4948385;28;20134;-72
2022/07/16 10:29:43;;;;;;;8.13;1.10;;;;;;;;;;4941835;28;20038;-72
2022/07/16 10:34:54;;;;;;;6.57;1.10;;;;;;;;;;4942084;28;20035;-71
2022/07/16 10:37:30;;;;;;;7.65;1.20;;;;;;;;;;4944663;28;20108;-70
2022/07/16 10:40:04;;;;;;;6.22;1.30;;;;;;;;;;4942037;28;20082;-71
2022/07/16 10:42:29;;;;;;;5.85;1.23;;;;;;;;;;4935491;28;20047;-70
2022/07/16 10:44:55;;;;;;;10.50;1.80;;;;;;;;;;4938127;28;20043;-71
2022/07/16 10:47:41;;;;;;;6.65;1.23;;;;;;;;;;4940167;28;20133;-70
2022/07/16 10:50:20;;;;;;;4.78;0.90;;;;;;;;;;4938080;28;20055;-68
2022/07/16 10:52:47;;;;;;;6.10;1.20;;;;;;;;;;4936180;28;20042;-69
2022/07/16 10:55:17;;;;;;;5.95;1.05;;;;;;;;;;4937971;28;20047;-69
2022/07/16 10:57:43;;;;;;;6.65;1.23;;;;;;;;;;4938043;28;20055;-70
2022/07/16 11:00:09;;;;;;;4.97;1.10;;;;;;;;;;4946164;28;20147;-70
2022/07/16 11:02:41;;;;;;;5.05;0.80;;;;;;;;;;4946335;28;20047;-71
2022/07/16 11:05:07;;;;;;;8.10;1.40;;;;;;;;;;4936509;28;20097;-70
2022/07/16 11:07:34;;;;;;;5.80;0.90;;;;;;;;;;4936066;28;20123;-70
2022/07/16 11:10:00;;;;;;;9.55;1.10;;;;;;;;;;4936169;28;20942;-70
2022/07/16 11:12:27;;;;;;;7.60;1.05;;;;;;;;;;4937419;28;20034;-70
2022/07/16 11:14:54;;;;;;;8.55;1.20;;;;;;;;;;4937664;28;20043;-71
2022/07/16 11:17:23;;;;;;;6.80;1.05;;;;;;;;;;4938072;28;20083;-72
2022/07/16 11:19:52;;;;;;;5.65;1.02;;;;;;;;;;4936794;28;20046;-71
2022/07/16 11:22:22;;;;;;;8.10;1.23;;;;;;;;;;4935395;28;20132;-73
2022/07/16 11:24:48;;;;;;;7.00;1.48;;;;;;;;;;4936809;28;20056;-70
2022/07/16 11:27:16;;;;;;;5.72;1.40;;;;;;;;;;4936886;28;20050;-69
2022/07/16 11:29:41;;;;;;;9.77;1.33;;;;;;;;;;4938965;28;20153;-70
2022/07/16 11:32:12;;;;;;;9.45;1.23;;;;;;;;;;4934173;28;20049;-71
2022/07/16 11:34:37;;;;;;;6.50;1.08;;;;;;;;;;4933567;28;20038;-69
2022/07/16 11:37:03;;;;;;;10.02;1.40;;;;;;;;;;4948934;28;20213;-68
2022/07/16 11:39:28;;;;;;;8.57;1.83;;;;;;;;;;4934882;28;20062;-67
2022/07/16 11:41:55;;;;;;;7.18;1.15;;;;;;;;;;4935545;28;20042;-69
2022/07/16 11:44:31;;;;;;;7.32;1.13;;;;;;;;;;4935839;28;20065;-69
2022/07/16 11:47:00;;;;;;;5.28;1.05;;;;;;;;;;4935452;28;20936;-68
2022/07/16 11:49:28;;;;;;;4.88;1.02;;;;;;;;;;4936333;28;20039;-68
2022/07/16 11:51:56;;;;;;;4.28;1.08;;;;;;;;;;4935981;28;20043;-68
2022/07/16 11:54:22;;;;;;;6.25;1.30;;;;;;;;;;4936635;28;21227;-68
2022/07/16 11:56:48;;;;;;;6.07;1.05;;;;;;;;;;4936008;28;20031;-70
2022/07/16 11:59:17;;;;;;;5.40;1.25;;;;;;;;;;4940213;28;20380;-70
2022/07/16 12:01:42;;;;;;;8.10;1.45;;;;;;;;;;4939306;28;20795;-70
2022/07/16 12:04:07;;;;;;;7.97;1.38;;;;;;;;;;4938212;28;20038;-69
2022/07/16 12:06:33;;;;;;;10.40;1.30;;;;;;;;;;4937836;28;20931;-69
2022/07/16 12:08:58;;;;;;;4.95;1.00;;;;;;;;;;4937252;28;20031;-69
2022/07/16 12:11:31;;;;;;;10.70;1.38;;;;;;;;;;4951416;28;20035;-69
2022/07/16 12:13:56;;;;;;;4.82;1.02;;;;;;;;;;4937638;28;20166;-71
2022/07/16 12:16:22;;;;;;;11.40;1.35;;;;;;;;;;4937471;28;20035;-70
2022/07/16 12:18:58;;;;;;;7.25;1.30;;;;;;;;;;4937363;28;20042;-70
2022/07/16 12:21:30;;;;;;;6.20;1.10;;;;;;;;;;4935821;28;20066;-70
2022/07/16 12:23:55;;;;;;;6.60;1.30;;;;;;;;;;4937409;28;20043;-68
2022/07/16 12:26:37;;;;;;;7.60;1.02;;;;;;;;;;4937518;28;20077;-66
2022/07/16 12:29:04;;;;;;;7.03;1.20;;;;;;;;;;4936914;28;20035;-70
2022/07/16 12:31:30;;;;;;;8.05;1.20;;;;;;;;;;4935462;28;20031;-69
2022/07/16 12:34:00;;;;;;;6.68;0.98;;;;;;;;;;4936331;28;20767;-70
2022/07/16 12:36:29;;;;;;;7.03;1.20;;;;;;;;;;4935746;28;20038;-69
2022/07/16 12:38:58;;;;;;;4.32;1.05;;;;;;;;;;4935162;28;20760;-70
2022/07/16 12:41:28;;;;;;;7.93;1.20;;;;;;;;;;4934168;28;20512;-69
2022/07/16 12:43:56;;;;;;;10.35;1.20;;;;;;;;;;4931695;28;20059;-69
2022/07/16 12:46:32;;;;;;;7.28;1.10;;;;;;;;;;4935512;28;20126;-68
2022/07/16 12:48:59;;;;;;;7.18;1.13;;;;;;;;;;4934435;28;20146;-69
2022/07/16 12:51:27;;;;;;;9.32;1.42;;;;;;;;;;4936532;28;20526;-69
2022/07/16 12:53:53;;;;;;;8.57;1.20;;;;;;;;;;4936236;28;20085;-67
2022/07/16 12:59:05;;;;;;;7.25;1.70;;;;;;;;;;4932864;28;20042;-71
2022/07/16 13:01:31;;;;;;;7.65;1.10;;;;;;;;;;4932163;28;20456;-71
2022/07/16 13:03:56;;;;;;;8.00;1.52;;;;;;;;;;4932853;28;20033;-71
2022/07/16 13:06:22;;;;;;;6.18;1.08;;;;;;;;;;4945451;28;20038;-70
2022/07/16 13:08:51;;;;;;;7.60;1.20;;;;;;;;;;4938732;28;20045;-70
2022/07/16 13:11:19;;;;;;;6.38;1.30;;;;;;;;;;4947596;28;20041;-71
2022/07/16 13:13:48;;;;;;;7.13;1.20;;;;;;;;;;4932837;28;20065;-70
2022/07/16 13:16:14;;;;;;;5.97;1.20;;;;;;;;;;4935476;28;20050;-70
2022/07/16 13:18:39;;;;;;;6.55;1.10;;;;;;;;;;4932194;28;20046;-70
2022/07/16 13:21:05;;;;;;;5.28;1.40;;;;;;;;;;4946060;28;20030;-71
2022/07/16 13:23:31;;;;;;;6.32;1.25;;;;;;;;;;4932014;28;20081;-69
2022/07/16 13:25:56;;;;;;;6.15;1.33;;;;;;;;;;4945566;28;20069;-68
2022/07/16 13:28:21;;;;;;;6.28;1.40;;;;;;;;;;4929215;28;20886;-68
2022/07/16 13:30:49;;;;;;;6.10;1.30;;;;;;;;;;4931714;28;20030;-69
2022/07/16 13:33:14;;;;;;;7.53;1.35;;;;;;;;;;4932149;28;20035;-69
2022/07/16 13:35:42;;;;;;;6.05;1.10;;;;;;;;;;4930534;28;20182;-68
2022/07/16 13:38:08;;;;;;;6.70;1.00;;;;;;;;;;4928873;28;20548;-69
2022/07/16 13:40:33;;;;;;;7.25;1.15;;;;;;;;;;4927070;28;20045;-71
2022/07/16 13:42:59;;;;;;;9.65;1.50;;;;;;;;;;4928445;28;20034;-67
2022/07/16 13:45:27;;;;;;;7.97;1.27;;;;;;;;;;4927150;28;20509;-70
2022/07/16 13:47:53;;;;;;;6.47;1.42;;;;;;;;;;4944317;28;20053;-68
2022/07/16 13:50:19;;;;;;;6.40;1.30;;;;;;;;;;4930012;28;20058;-68
2022/07/16 13:52:44;;;;;;;7.82;1.20;;;;;;;;;;4927387;28;20465;-69
2022/07/16 13:55:10;;;;;;;5.25;1.05;;;;;;;;;;4931699;28;20208;-70
2022/07/16 14:00:23;;;;;;;7.43;1.15;;;;;;;;;;4945630;28;20071;-66
2022/07/16 14:02:48;;;;;;;6.78;1.40;;;;;;;;;;4930975;28;20041;-67
2022/07/16 14:05:13;;;;;;;5.07;1.00;;;;;;;;;;4945834;28;20041;-67
2022/07/16 14:07:39;;;;;;;6.03;1.17;;;;;;;;;;4930582;28;20829;-67
2022/07/16 14:10:05;;;;;;;4.75;1.00;;;;;;;;;;4932038;28;20058;-71
2022/07/16 14:12:30;;;;;;;6.05;1.23;;;;;;;;;;4932941;28;20880;-70
2022/07/16 14:14:55;;;;;;;5.07;1.02;;;;;;;;;;4930727;28;20043;-70
2022/07/16 14:17:23;;;;;;;5.05;1.10;;;;;;;;;;4931862;28;20114;-70
2022/07/16 14:19:48;;;;;;;8.48;1.30;;;;;;;;;;4931786;28;20120;-68
2022/07/16 14:22:13;;;;;;;6.95;1.10;;;;;;;;;;4929250;28;21094;-68
2022/07/16 14:24:41;;;;;;;6.47;1.25;;;;;;;;;;4932512;28;20109;-69
2022/07/16 14:27:06;;;;;;;4.50;1.00;;;;;;;;;;4930887;28;20049;-70
2022/07/16 14:29:34;;;;;;;7.30;1.13;;;;;;;;;;4933620;28;20073;-71
2022/07/16 14:31:59;;;;;;;5.22;0.90;;;;;;;;;;4931865;28;20822;-70
2022/07/16 14:34:27;;;;;;;6.03;1.30;;;;;;;;;;4932043;28;20030;-70
2022/07/16 14:36:53;;;;;;;5.32;1.20;;;;;;;;;;4930153;28;20108;-72
2022/07/16 14:39:20;;;;;;;7.32;1.15;;;;;;;;;;4933107;28;20062;-75
2022/07/16 14:41:46;;;;;;;6.88;1.25;;;;;;;;;;4929855;28;20965;-70
2022/07/16 14:44:11;;;;;;;8.45;1.27;;;;;;;;;;4931491;28;20905;-71
2022/07/16 14:46:40;;;;;;;4.35;1.08;;;;;;;;;;4938252;28;20070;-71
2022/07/16 14:49:05;;;;;;;7.10;1.40;;;;;;;;;;4930364;28;20344;-71
2022/07/16 14:51:30;;;;;;;8.30;1.05;;;;;;;;;;4928761;28;20069;-71
2022/07/16 14:53:55;;;;;;;5.05;1.20;;;;;;;;;;4942184;28;20267;-72
2022/07/16 14:56:21;;;;;;;7.32;1.15;;;;;;;;;;4926991;28;20037;-71